Impacts METAR Board
IDs:

KSLC - Salt Lake City Intl, UT, US

Updated at: 0100 UTC 25 May 2018
Potential Impact None Slight Moderate High
Time 24/13Z 24/14Z 24/15Z 24/16Z 24/17Z 24/18Z 24/19Z 24/20Z 24/21Z 24/22Z 24/23Z 25/00Z 25/01Z
Temp57 59 63 68 73 77 79 81 82 83 85 84 84
Dewpt45 45 45 43 45 45 37 41 34 34 35 36 36
Altim30.08 30.10 30.10 30.10 30.10 30.10 30.08 30.07 30.05 30.03 30.01 29.99 29.98
VIS10 10 10 10 10 10 10 10 10 10 10 10 10
CIG110 95 -- -- -- -- -- -- -- -- -- -- --
CoverBKNBKNSCTSCTSCTFEWFEWSCTSCTSCTFEWFEWFEW
FltCatVFRVFRVFRVFRVFRVFRVFRVFRVFRVFRVFRVFRVFR
WX--------------------------
WDir150140140140140170170190250000320
WSpd8 9 8 7 10 10 5 5 6 0 0 4 8
WGst-- -- -- -- -- -- 15 -- -- -- -- -- --
Raw hourly METARs
KSLC 241254Z 15008KT 10SM BKN110 14/07 A3008
KSLC 241354Z 14009KT 10SM BKN095 15/07 A3010
KSLC 241454Z 14008KT 10SM FEW080 SCT110 17/07 A3010
KSLC 241554Z 14007KT 10SM FEW080 SCT110 20/06 A3010
KSLC 241654Z 14010KT 10SM FEW075 SCT110 23/07 A3010
KSLC 241754Z 17010KT 10SM FEW070 FEW110 25/07 A3010 RMK TCU DSNT NW
KSLC 241854Z 17005G15KT 10SM FEW075 FEW120 26/03 A3008 RMK TCU DSNT NE AND NW ACSL DSNT W
KSLC 241954Z 19005KT 10SM FEW075TCU SCT120 SCT250 27/05 A3007 RMK CB DSNT NW TCU NE AND DSNT W
KSLC 242054Z 25006KT 10SM FEW080TCU SCT100 SCT250 28/01 A3005 RMK CB DSNT W-NW TCU NE AND DSNT N
KSLC 242154Z COR 00000KT 10SM FEW085 SCT100 28/01 A3003 RMK AO2 SLP122 T02830011
KSLC 242254Z 00000KT 10SM FEW110 29/02 A3001 RMK AO2 SLP114 T02940017
KSLC 242354Z VRB04KT 10SM FEW100 29/02 A2999 RMK AO2 SLP108 T02890022 10300 20250 57017
KSLC 250054Z 32008KT 10SM FEW110 29/02 A2998 RMK AO2 SLP104 T02890022



Page loaded:  01:17 UTC  |   06:17 PM Pacific  |   07:17 PM Mountain  |   08:17 PM Central  |   09:17 PM Eastern

 

ADVISORIES

FORECASTS

FORECASTS

OBSERVATIONS

USER TOOLS

ABOUT US